sensor_id;sensor_type;location;lat;lon;timestamp;pressure;altitude;pressure_sealevel;temperature;humidity
46241;BME280;31961;52.416;-0.732;2022-09-27T00:00:14;99472.90;;;6.65;71.23
46241;BME280;31961;52.416;-0.732;2022-09-27T00:02:41;99471.73;;;6.45;71.89
46241;BME280;31961;52.416;-0.732;2022-09-27T00:05:08;99469.57;;;6.45;71.80
46241;BME280;31961;52.416;-0.732;2022-09-27T00:07:36;99464.98;;;6.39;72.48
46241;BME280;31961;52.416;-0.732;2022-09-27T00:10:04;99458.92;;;5.53;73.87
46241;BME280;31961;52.416;-0.732;2022-09-27T00:12:32;99460.60;;;6.31;73.17
46241;BME280;31961;52.416;-0.732;2022-09-27T00:15:00;99457.10;;;6.26;71.84
46241;BME280;31961;52.416;-0.732;2022-09-27T00:17:27;99454.06;;;5.90;74.40
46241;BME280;31961;52.416;-0.732;2022-09-27T00:19:57;99457.37;;;5.74;73.36
46241;BME280;31961;52.416;-0.732;2022-09-27T00:22:25;99454.72;;;6.38;71.66
46241;BME280;31961;52.416;-0.732;2022-09-27T00:24:52;99452.63;;;6.37;71.23
46241;BME280;31961;52.416;-0.732;2022-09-27T00:27:20;99451.90;;;6.13;71.79
46241;BME280;31961;52.416;-0.732;2022-09-27T00:29:48;99451.37;;;6.65;69.63
46241;BME280;31961;52.416;-0.732;2022-09-27T00:32:16;99452.14;;;6.70;69.33
46241;BME280;31961;52.416;-0.732;2022-09-27T00:34:43;99451.18;;;6.67;68.91
46241;BME280;31961;52.416;-0.732;2022-09-27T00:37:11;99456.34;;;6.37;68.85
46241;BME280;31961;52.416;-0.732;2022-09-27T00:39:38;99456.82;;;6.73;68.60
46241;BME280;31961;52.416;-0.732;2022-09-27T00:42:09;99467.91;;;6.24;70.29
46241;BME280;31961;52.416;-0.732;2022-09-27T00:45:05;99464.90;;;6.31;69.03
46241;BME280;31961;52.416;-0.732;2022-09-27T00:47:38;99470.28;;;6.50;69.01
46241;BME280;31961;52.416;-0.732;2022-09-27T00:50:12;99469.16;;;6.33;68.95
46241;BME280;31961;52.416;-0.732;2022-09-27T00:52:46;99470.58;;;6.53;69.34
46241;BME280;31961;52.416;-0.732;2022-09-27T00:55:18;99471.10;;;5.99;71.16
46241;BME280;31961;52.416;-0.732;2022-09-27T00:57:46;99470.91;;;5.64;71.81
46241;BME280;31961;52.416;-0.732;2022-09-27T01:00:15;99469.98;;;5.65;72.42
46241;BME280;31961;52.416;-0.732;2022-09-27T01:02:48;99473.77;;;5.60;72.88
46241;BME280;31961;52.416;-0.732;2022-09-27T01:05:21;99472.36;;;5.63;73.44
46241;BME280;31961;52.416;-0.732;2022-09-27T01:07:52;99471.19;;;5.57;74.08
46241;BME280;31961;52.416;-0.732;2022-09-27T01:10:25;99469.81;;;5.18;73.47
46241;BME280;31961;52.416;-0.732;2022-09-27T01:13:15;99475.82;;;5.08;74.18
46241;BME280;31961;52.416;-0.732;2022-09-27T01:15:56;99472.33;;;5.19;73.29
46241;BME280;31961;52.416;-0.732;2022-09-27T01:18:40;99475.50;;;5.24;73.54
46241;BME280;31961;52.416;-0.732;2022-09-27T01:21:38;99476.75;;;5.26;74.59
46241;BME280;31961;52.416;-0.732;2022-09-27T01:24:23;99470.43;;;4.78;75.71
46241;BME280;31961;52.416;-0.732;2022-09-27T01:27:46;99465.23;;;4.53;75.39
46241;BME280;31961;52.416;-0.732;2022-09-27T01:30:27;99458.69;;;4.45;76.00
46241;BME280;31961;52.416;-0.732;2022-09-27T01:33:13;99459.48;;;4.82;74.54
46241;BME280;31961;52.416;-0.732;2022-09-27T01:36:10;99461.82;;;4.92;75.38
46241;BME280;31961;52.416;-0.732;2022-09-27T01:39:01;99463.85;;;4.12;76.71
46241;BME280;31961;52.416;-0.732;2022-09-27T01:41:51;99465.13;;;4.66;76.59
46241;BME280;31961;52.416;-0.732;2022-09-27T01:44:34;99458.30;;;4.43;76.26
